sensor_id;sensor_type;location;lat;lon;timestamp;pressure;altitude;pressure_sealevel;temperature;humidity
69593;BME280;56796;50.122;14.468;2023-07-16T00:10:27;972.44;;;26.37;52.22
69593;BME280;56796;50.122;14.468;2023-07-16T00:29:53;972.62;;;26;53.3
69593;BME280;56796;50.122;14.468;2023-07-16T00:49:19;972.93;;;25.45;55.2
69593;BME280;56796;50.122;14.468;2023-07-16T01:08:46;973.5;;;25.27;55.99
69593;BME280;56796;50.122;14.468;2023-07-16T01:28:18;974.21;;;24.85;57.64
69593;BME280;56796;50.122;14.468;2023-07-16T01:47:39;974.2;;;24.88;57.91
69593;BME280;56796;50.122;14.468;2023-07-16T02:07:05;974.58;;;24.67;59.38
69593;BME280;56796;50.122;14.468;2023-07-16T02:26:30;975.03;;;24.41;60.76
69593;BME280;56796;50.122;14.468;2023-07-16T02:45:56;975.8;;;24.09;62.9
69593;BME280;56796;50.122;14.468;2023-07-16T03:05:23;976.19;;;23.93;63.94
69593;BME280;56796;50.122;14.468;2023-07-16T03:24:51;976.82;;;23.83;64.7
69593;BME280;56796;50.122;14.468;2023-07-16T03:44:18;976.95;;;23.78;65.91
69593;BME280;56796;50.122;14.468;2023-07-16T04:03:45;977.74;;;24.04;65.51
69593;BME280;56796;50.122;14.468;2023-07-16T04:23:13;977.7;;;24.07;65.76
69593;BME280;56796;50.122;14.468;2023-07-16T04:42:38;978.39;;;22.72;74.62
69593;BME280;56796;50.122;14.468;2023-07-16T05:02:04;978.85;;;21.88;81.38
69593;BME280;56796;50.122;14.468;2023-07-16T05:21:26;978.44;;;21.09;89.74
69593;BME280;56796;50.122;14.468;2023-07-16T05:40:52;978.76;;;21;93.22
69593;BME280;56796;50.122;14.468;2023-07-16T06:00:18;978.22;;;20.76;97.47
69593;BME280;56796;50.122;14.468;2023-07-16T06:19:45;978.56;;;21.03;96.69
69593;BME280;56796;50.122;14.468;2023-07-16T06:39:15;978.1;;;22.05;93.81
69593;BME280;56796;50.122;14.468;2023-07-16T06:58:44;978.79;;;22.03;91.6
69593;BME280;56796;50.122;14.468;2023-07-16T07:18:11;978.83;;;22.04;89.88
69593;BME280;56796;50.122;14.468;2023-07-16T07:37:38;979.05;;;22.35;89.82
69593;BME280;56796;50.122;14.468;2023-07-16T07:57:07;979.35;;;22.88;86.85
69593;BME280;56796;50.122;14.468;2023-07-16T08:16:38;979.47;;;24.94;75.7
69593;BME280;56796;50.122;14.468;2023-07-16T08:36:13;979.43;;;25.19;72.65
69593;BME280;56796;50.122;14.468;2023-07-16T08:55:43;979.69;;;26.61;65.19
69593;BME280;56796;50.122;14.468;2023-07-16T09:15:09;979.91;;;25.24;64.69
69593;BME280;56796;50.122;14.468;2023-07-16T09:34:37;979.89;;;26.17;59.23
69593;BME280;56796;50.122;14.468;2023-07-16T09:54:12;980.22;;;25;62.58
69593;BME280;56796;50.122;14.468;2023-07-16T10:13:22;980.44;;;24.26;63.44
69593;BME280;56796;50.122;14.468;2023-07-16T10:32:45;980.3;;;24.53;63.91
69593;BME280;56796;50.122;14.468;2023-07-16T10:52:13;980.38;;;24.81;62.63
69593;BME280;56796;50.122;14.468;2023-07-16T11:11:40;980.61;;;23.97;60.8
69593;BME280;56796;50.122;14.468;2023-07-16T11:50:27;980.59;;;22.63;65.76
69593;BME280;56796;50.122;14.468;2023-07-16T12:09:54;980.32;;;23.19;67.55
69593;BME280;56796;50.122;14.468;2023-07-16T12:29:23;980.39;;;23.2;65.38
69593;BME280;56796;50.122;14.468;2023-07-16T12:48:51;980.26;;;23.6;64.35
69593;BME280;56796;50.122;14.468;2023-07-16T13:08:20;980.3;;;25.71;59.93
69593;BME280;56796;50.122;14.468;2023-07-16T13:27:57;980.16;;;26.87;56.26
69593;BME280;56796;50.122;14.468;2023-07-16T13:47:30;980.23;;;27.42;54.71
69593;BME280;56796;50.122;14.468;2023-07-16T14:06:56;980.08;;;27.67;53.96
69593;BME280;56796;50.122;14.468;2023-07-16T14:26:25;979.91;;;28.28;52.93
69593;BME280;56796;50.122;14.468;2023-07-16T14:45:52;979.65;;;28.51;53.06
69593;BME280;56796;50.122;14.468;2023-07-16T15:05:20;979.5;;;28.31;52.12
69593;BME280;56796;50.122;14.468;2023-07-16T15:24:46;979.4;;;28.02;52.87
69593;BME280;56796;50.122;14.468;2023-07-16T15:44:14;979.23;;;28.69;50.78
69593;BME280;56796;50.122;14.468;2023-07-16T16:03:42;979.18;;;29.22;47.5
69593;BME280;56796;50.122;14.468;2023-07-16T16:23:09;979.07;;;28.66;47.89
69593;BME280;56796;50.122;14.468;2023-07-16T16:42:36;979;;;28.83;47.93
69593;BME280;56796;50.122;14.468;2023-07-16T17:02:03;979.07;;;28.4;48.55
69593;BME280;56796;50.122;14.468;2023-07-16T17:21:29;979.03;;;28.23;49.17
69593;BME280;56796;50.122;14.468;2023-07-16T17:40:55;979.01;;;27.77;50.05
69593;BME280;56796;50.122;14.468;2023-07-16T18:00:25;979.12;;;27.69;50.63
69593;BME280;56796;50.122;14.468;2023-07-16T18:19:44;979.1;;;27.48;51.7
69593;BME280;56796;50.122;14.468;2023-07-16T18:39:10;979.16;;;26.92;52.67
69593;BME280;56796;50.122;14.468;2023-07-16T18:58:36;979.39;;;26.38;53.99
69593;BME280;56796;50.122;14.468;2023-07-16T19:18:01;979.54;;;26.21;54.98
69593;BME280;56796;50.122;14.468;2023-07-16T19:37:30;979.61;;;25.95;56
69593;BME280;56796;50.122;14.468;2023-07-16T19:56:49;979.71;;;25.36;61.78
69593;BME280;56796;50.122;14.468;2023-07-16T20:16:14;979.6;;;24.78;63.83
69593;BME280;56796;50.122;14.468;2023-07-16T20:35:39;979.61;;;24.63;64.8
69593;BME280;56796;50.122;14.468;2023-07-16T20:55:06;979.74;;;24.33;64.46
69593;BME280;56796;50.122;14.468;2023-07-16T21:14:31;979.93;;;24.41;64.08
69593;BME280;56796;50.122;14.468;2023-07-16T21:33:59;979.94;;;24.26;64.4
69593;BME280;56796;50.122;14.468;2023-07-16T21:53:25;980.03;;;23.99;65.63
69593;BME280;56796;50.122;14.468;2023-07-16T22:12:58;979.91;;;23.68;66.64
69593;BME280;56796;50.122;14.468;2023-07-16T22:32:13;979.76;;;23.75;66.43
69593;BME280;56796;50.122;14.468;2023-07-16T22:51:39;980.31;;;23.61;67.06
69593;BME280;56796;50.122;14.468;2023-07-16T23:11:06;980.26;;;22.87;73.39
69593;BME280;56796;50.122;14.468;2023-07-16T23:30:30;980.18;;;22.24;78.13
69593;BME280;56796;50.122;14.468;2023-07-16T23:49:55;980.48;;;22.1;80.21
